createdAt,value
2023-05-01T00:00:41.527Z,1384.00
2023-05-01T00:01:41.563Z,1372.00
2023-05-01T00:02:41.691Z,1396.00
2023-05-01T00:03:41.860Z,1384.00
2023-05-01T00:04:41.773Z,1393.00
2023-05-01T00:05:41.780Z,1397.00
2023-05-01T00:06:41.881Z,1382.00
2023-05-01T00:07:41.856Z,1398.00
2023-05-01T00:08:41.912Z,1393.00
2023-05-01T00:09:41.989Z,1385.00
2023-05-01T00:10:42.006Z,1365.00
2023-05-01T00:11:42.068Z,1385.00
2023-05-01T00:12:42.109Z,1380.00
2023-05-01T00:13:42.152Z,1374.00
2023-05-01T00:14:42.240Z,1365.00
2023-05-01T00:15:42.331Z,1368.00
2023-05-01T00:16:42.348Z,1371.00
2023-05-01T00:17:42.385Z,1395.00
2023-05-01T00:18:42.405Z,1415.00
2023-05-01T00:19:42.464Z,1431.00
2023-05-01T00:20:42.552Z,1415.00
2023-05-01T00:21:42.579Z,1408.00
2023-05-01T00:22:42.642Z,1411.00
2023-05-01T00:23:42.690Z,1422.00
2023-05-01T00:24:42.757Z,1445.00
2023-05-01T00:25:42.769Z,1431.00
2023-05-01T00:26:42.830Z,1417.00
2023-05-01T00:27:42.891Z,1417.00
2023-05-01T00:28:42.951Z,1409.00
2023-05-01T00:29:42.978Z,1411.00
2023-05-01T00:30:43.005Z,1405.00
2023-05-01T00:31:43.125Z,1415.00
2023-05-01T00:32:43.170Z,1428.00
2023-05-01T00:33:43.180Z,1414.00
2023-05-01T00:34:43.252Z,1423.00
2023-05-01T00:35:43.299Z,1431.00
2023-05-01T00:36:43.326Z,1434.00
2023-05-01T00:37:43.373Z,1432.00
2023-05-01T00:38:43.401Z,1432.00
2023-05-01T00:39:43.478Z,1428.00
2023-05-01T00:40:43.545Z,1432.00
2023-05-01T00:41:43.597Z,1411.00
2023-05-01T00:42:43.633Z,1437.00
2023-05-01T00:43:43.649Z,1428.00
2023-05-01T00:44:43.714Z,1432.00
2023-05-01T00:45:43.872Z,1420.00
2023-05-01T00:46:43.806Z,1423.00
2023-05-01T00:47:43.875Z,1416.00
2023-05-01T00:48:43.928Z,1448.00
2023-05-01T00:49:43.984Z,1432.00
2023-05-01T00:50:44.025Z,1428.00
2023-05-01T00:51:44.089Z,1433.00
2023-05-01T00:52:44.125Z,1435.00
2023-05-01T00:53:44.165Z,1415.00
2023-05-01T00:54:44.233Z,1437.00
2023-05-01T00:55:44.296Z,1446.00
2023-05-01T00:56:44.338Z,1437.00
2023-05-01T00:57:44.375Z,1443.00
2023-05-01T00:58:44.415Z,1453.00
2023-05-01T00:59:44.481Z,1484.00
2023-05-01T01:00:44.523Z,1530.00
2023-05-01T01:01:44.705Z,1564.00
2023-05-01T01:02:44.659Z,1578.00
2023-05-01T01:03:44.658Z,1595.00
2023-05-01T01:04:44.763Z,1621.00
2023-05-01T01:05:44.799Z,1636.00
2023-05-01T01:06:44.905Z,1654.00
2023-05-01T01:07:44.889Z,1675.00
2023-05-01T01:08:44.914Z,1682.00
2023-05-01T01:09:45.006Z,1705.00
2023-05-01T01:10:45.044Z,1658.00
2023-05-01T01:11:45.079Z,1620.00
2023-05-01T01:12:45.093Z,1621.00
2023-05-01T01:13:45.141Z,1618.00
2023-05-01T01:14:45.169Z,1606.00
2023-05-01T01:15:45.259Z,1575.00
2023-05-01T01:16:45.329Z,1576.00
2023-05-01T01:17:45.422Z,1571.00
2023-05-01T01:18:45.365Z,1570.00
2023-05-01T01:19:45.384Z,1549.00
2023-05-01T01:20:45.425Z,1560.00
2023-05-01T01:21:45.473Z,1580.00
2023-05-01T01:22:45.518Z,1562.00
2023-05-01T01:23:45.551Z,1552.00
2023-05-01T01:24:45.607Z,1557.00
2023-05-01T01:25:45.733Z,1525.00
2023-05-01T01:26:45.725Z,1552.00
2023-05-01T01:27:45.738Z,1579.00
2023-05-01T01:28:45.767Z,1567.00
2023-05-01T01:29:45.783Z,1574.00
2023-05-01T01:30:45.850Z,1579.00
2023-05-01T01:31:45.887Z,1560.00
2023-05-01T01:32:45.939Z,1562.00
2023-05-01T01:33:45.886Z,1570.00
2023-05-01T01:34:45.923Z,1571.00
2023-05-01T01:35:45.943Z,1587.00
2023-05-01T01:36:46.007Z,1579.00
2023-05-01T01:37:46.028Z,1560.00
2023-05-01T01:38:46.052Z,1556.00
2023-05-01T01:39:46.079Z,1568.00
2023-05-01T01:40:46.127Z,1542.00
2023-05-01T01:41:46.153Z,1541.00
2023-05-01T01:42:46.161Z,1553.00
2023-05-01T01:43:46.218Z,1556.00
2023-05-01T01:44:46.187Z,1565.00
2023-05-01T01:45:46.285Z,1548.00
2023-05-01T01:46:46.296Z,1554.00
2023-05-01T01:47:46.408Z,1553.00
2023-05-01T01:48:46.292Z,1572.00
2023-05-01T01:49:46.333Z,1549.00
2023-05-01T01:50:46.369Z,1565.00
2023-05-01T01:51:46.396Z,1582.00
2023-05-01T01:52:46.383Z,1578.00
2023-05-01T01:53:46.447Z,1589.00
2023-05-01T01:54:46.474Z,1558.00
2023-05-01T01:55:46.511Z,1576.00
2023-05-01T01:56:46.521Z,1555.00
2023-05-01T01:57:46.558Z,1537.00
2023-05-01T01:58:46.605Z,1559.00
2023-05-01T01:59:46.610Z,1554.00
2023-05-01T02:00:46.678Z,1563.00
2023-05-01T02:01:46.710Z,1536.00
2023-05-01T02:02:46.836Z,1545.00
2023-05-01T02:03:46.928Z,1533.00
2023-05-01T02:04:46.836Z,1522.00
2023-05-01T02:05:46.914Z,1526.00
2023-05-01T02:06:47.056Z,1544.00
2023-05-01T02:07:46.969Z,1538.00
2023-05-01T02:08:47.019Z,1544.00
2023-05-01T02:09:47.049Z,1533.00
2023-05-01T02:10:47.128Z,1533.00
2023-05-01T02:11:47.106Z,1545.00
2023-05-01T02:12:47.113Z,1537.00
2023-05-01T02:13:47.164Z,1528.00
2023-05-01T02:14:47.196Z,1534.00
2023-05-01T02:15:47.309Z,1544.00
2023-05-01T02:16:47.318Z,1546.00
2023-05-01T02:17:47.415Z,1561.00
2023-05-01T02:18:47.363Z,1541.00
2023-05-01T02:19:47.378Z,1526.00
2023-05-01T02:20:47.453Z,1524.00
2023-05-01T02:21:47.482Z,1527.00
2023-05-01T02:22:47.488Z,1511.00
2023-05-01T02:23:47.514Z,1520.00
2023-05-01T02:24:47.549Z,1544.00
2023-05-01T02:25:47.575Z,1537.00
2023-05-01T02:26:47.644Z,1540.00
2023-05-01T02:27:47.673Z,1541.00
2023-05-01T02:28:47.730Z,1533.00
2023-05-01T02:29:47.774Z,1544.00
2023-05-01T02:30:47.847Z,1523.00
2023-05-01T02:31:47.892Z,1526.00
2023-05-01T02:32:47.933Z,1528.00
2023-05-01T02:33:47.935Z,1536.00
2023-05-01T02:34:47.982Z,1553.00
2023-05-01T02:35:48.052Z,1530.00
2023-05-01T02:36:48.069Z,1541.00
2023-05-01T02:37:48.157Z,1547.00
2023-05-01T02:38:48.179Z,1511.00
2023-05-01T02:39:48.293Z,1534.00
2023-05-01T02:40:48.388Z,1515.00
2023-05-01T02:41:48.377Z,1520.00
2023-05-01T02:42:48.348Z,1511.00
2023-05-01T02:43:48.414Z,1536.00
2023-05-01T02:44:48.452Z,1507.00
2023-05-01T02:45:48.556Z,1506.00
2023-05-01T02:46:48.609Z,1511.00
2023-05-01T02:47:48.653Z,1492.00
2023-05-01T02:48:48.663Z,1512.00
2023-05-01T02:49:48.745Z,1511.00
2023-05-01T02:50:48.757Z,1492.00
2023-05-01T02:51:48.846Z,1488.00
2023-05-01T02:52:48.868Z,1514.00
2023-05-01T02:53:48.907Z,1503.00
2023-05-01T02:54:48.997Z,1519.00
2023-05-01T02:55:49.065Z,1515.00
2023-05-01T02:56:49.122Z,1504.00
2023-05-01T02:57:49.177Z,1493.00
2023-05-01T02:58:49.188Z,1502.00
2023-05-01T02:59:49.286Z,1492.00
2023-05-01T03:00:49.320Z,1484.00
2023-05-01T03:01:49.532Z,1482.00
2023-05-01T03:02:49.339Z,1474.00
2023-05-01T03:03:49.415Z,1486.00
2023-05-01T03:04:49.413Z,1467.00
2023-05-01T03:05:49.416Z,1469.00
2023-05-01T03:06:49.528Z,1483.00
2023-05-01T03:07:49.477Z,1495.00
2023-05-01T03:08:49.550Z,1519.00
2023-05-01T03:09:49.545Z,1496.00
2023-05-01T03:10:49.567Z,1488.00
2023-05-01T03:11:49.601Z,1499.00
2023-05-01T03:12:49.688Z,1492.00
2023-05-01T03:13:49.714Z,1479.00
2023-05-01T03:14:49.706Z,1485.00
2023-05-01T03:15:49.727Z,1478.00
2023-05-01T03:16:49.870Z,1483.00
2023-05-01T03:17:49.921Z,1477.00
2023-05-01T03:18:49.868Z,1476.00
2023-05-01T03:19:49.864Z,1454.00
2023-05-01T03:20:49.867Z,1474.00
2023-05-01T03:21:49.962Z,1472.00
2023-05-01T03:22:49.933Z,1463.00
2023-05-01T03:23:49.952Z,1476.00
2023-05-01T03:24:49.990Z,1496.00
2023-05-01T03:25:49.998Z,1475.00
2023-05-01T03:26:50.021Z,1462.00
2023-05-01T03:27:50.052Z,1470.00
2023-05-01T03:28:50.082Z,1476.00
2023-05-01T03:29:50.148Z,1460.00
2023-05-01T03:30:50.146Z,1462.00
2023-05-01T03:31:50.246Z,1470.00
2023-05-01T03:32:50.225Z,1479.00
2023-05-01T03:33:50.245Z,1442.00
2023-05-01T03:34:50.321Z,1442.00
2023-05-01T03:35:50.252Z,1450.00
2023-05-01T03:36:50.315Z,1467.00
2023-05-01T03:37:50.342Z,1464.00
2023-05-01T03:38:50.361Z,1478.00
2023-05-01T03:39:50.432Z,1445.00
2023-05-01T03:40:50.373Z,1460.00
2023-05-01T03:41:50.426Z,1470.00
2023-05-01T03:42:50.476Z,1470.00
2023-05-01T03:43:50.511Z,1487.00
2023-05-01T03:44:50.525Z,1455.00
2023-05-01T03:45:50.585Z,1460.00
2023-05-01T03:46:50.567Z,1464.00
2023-05-01T03:47:50.676Z,1476.00
2023-05-01T03:48:50.610Z,1455.00
2023-05-01T03:49:50.637Z,1455.00
2023-05-01T03:50:50.637Z,1447.00
2023-05-01T03:51:50.665Z,1443.00
2023-05-01T03:52:50.689Z,1461.00
2023-05-01T03:53:50.709Z,1450.00
2023-05-01T03:54:50.730Z,1453.00
2023-05-01T03:55:50.877Z,1453.00
2023-05-01T03:56:50.811Z,1447.00
2023-05-01T03:57:50.790Z,1448.00
2023-05-01T03:58:50.795Z,1433.00
2023-05-01T03:59:50.830Z,1444.00
2023-05-01T04:00:50.864Z,1466.00
2023-05-01T04:01:50.877Z,1446.00
2023-05-01T04:02:51.172Z,1443.00
2023-05-01T04:03:50.985Z,1453.00
2023-05-01T04:04:50.951Z,1441.00
2023-05-01T04:05:51.008Z,1447.00
2023-05-01T04:06:51.101Z,1450.00
2023-05-01T04:07:51.024Z,1475.00
2023-05-01T04:08:51.048Z,1450.00
2023-05-01T04:09:51.096Z,1453.00
2023-05-01T04:10:51.135Z,1466.00
2023-05-01T04:11:51.151Z,1446.00
2023-05-01T04:12:51.145Z,1447.00
2023-05-01T04:13:51.193Z,1444.00
2023-05-01T04:14:51.241Z,1438.00
2023-05-01T04:15:51.328Z,1440.00
2023-05-01T04:16:51.379Z,1457.00
2023-05-01T04:17:51.336Z,1456.00
2023-05-01T04:18:51.326Z,1457.00
2023-05-01T04:19:51.365Z,1437.00
2023-05-01T04:20:51.749Z,1442.00
2023-05-01T04:21:51.808Z,1445.00
2023-05-01T04:22:51.502Z,1447.00
2023-05-01T04:23:51.549Z,1440.00
2023-05-01T04:24:51.563Z,1454.00
2023-05-01T04:25:51.624Z,1459.00
2023-05-01T04:26:51.688Z,1445.00
2023-05-01T04:27:51.707Z,1456.00
2023-05-01T04:28:51.741Z,1432.00
2023-05-01T04:29:51.786Z,1445.00
2023-05-01T04:30:51.839Z,1444.00
2023-05-01T04:31:51.867Z,1444.00
2023-05-01T04:32:51.867Z,1438.00
2023-05-01T04:33:51.890Z,1447.00
2023-05-01T04:34:51.922Z,1448.00
2023-05-01T04:35:51.945Z,1458.00
2023-05-01T04:36:51.991Z,1458.00
2023-05-01T04:37:52.034Z,1438.00
2023-05-01T04:38:52.019Z,1460.00
2023-05-01T04:39:52.053Z,1437.00
2023-05-01T04:40:52.109Z,1445.00
2023-05-01T04:41:52.139Z,1459.00
2023-05-01T04:42:52.170Z,1470.00
2023-05-01T04:43:52.199Z,1460.00
2023-05-01T04:44:52.222Z,1450.00
2023-05-01T04:45:52.258Z,1441.00
2023-05-01T04:46:52.352Z,1430.00
2023-05-01T04:47:52.373Z,1453.00
2023-05-01T04:48:52.364Z,1434.00
2023-05-01T04:49:52.391Z,1457.00
2023-05-01T04:50:52.409Z,1441.00
2023-05-01T04:51:52.441Z,1438.00
2023-05-01T04:52:52.477Z,1442.00
2023-05-01T04:53:52.475Z,1460.00
2023-05-01T04:54:52.532Z,1474.00
2023-05-01T04:55:52.575Z,1450.00
2023-05-01T04:56:52.577Z,1455.00
2023-05-01T04:57:52.649Z,1462.00
2023-05-01T04:58:53.386Z,1423.00
2023-05-01T04:59:52.701Z,1451.00
2023-05-01T05:00:52.732Z,1446.00
2023-05-01T05:01:59.984Z,1440.00
2023-05-01T05:02:52.922Z,1443.00
2023-05-01T05:03:53.062Z,1445.00
2023-05-01T05:04:52.801Z,1447.00
2023-05-01T05:05:52.795Z,1453.00
2023-05-01T05:06:52.913Z,1455.00
2023-05-01T05:07:52.803Z,1434.00
2023-05-01T05:08:52.870Z,1436.00
2023-05-01T05:09:52.867Z,1415.00
2023-05-01T05:10:52.878Z,1417.00
2023-05-01T05:11:52.850Z,1441.00
2023-05-01T05:12:52.897Z,1434.00
2023-05-01T05:13:52.850Z,1426.00
2023-05-01T05:14:52.857Z,1441.00
2023-05-01T05:15:52.878Z,1451.00
2023-05-01T05:16:52.956Z,1422.00
2023-05-01T05:17:55.135Z,1432.00
2023-05-01T05:18:52.895Z,1433.00
2023-05-01T05:19:52.934Z,1435.00
2023-05-01T05:20:52.870Z,1433.00
2023-05-01T05:21:52.916Z,1440.00
2023-05-01T05:22:52.946Z,1445.00
2023-05-01T05:23:52.920Z,1445.00
2023-05-01T05:24:52.935Z,1453.00
2023-05-01T05:25:52.943Z,1426.00
2023-05-01T05:26:52.925Z,1436.00
2023-05-01T05:27:52.914Z,1436.00
2023-05-01T05:28:52.961Z,1444.00
2023-05-01T05:29:53.103Z,1437.00
2023-05-01T05:30:52.980Z,1419.00
2023-05-01T05:31:53.001Z,1432.00
2023-05-01T05:32:53.039Z,1418.00
2023-05-01T05:33:52.952Z,1431.00
2023-05-01T05:34:52.989Z,1459.00
2023-05-01T05:35:52.978Z,1439.00
2023-05-01T05:36:53.020Z,1427.00
2023-05-01T05:37:53.019Z,1414.00
2023-05-01T05:38:53.031Z,1413.00
2023-05-01T05:39:53.122Z,1427.00
2023-05-01T05:40:52.997Z,1418.00
2023-05-01T05:41:53.086Z,1433.00
2023-05-01T05:42:53.058Z,1431.00
2023-05-01T05:43:53.060Z,1433.00
2023-05-01T05:44:53.118Z,1426.00
2023-05-01T05:46:00.185Z,1406.00
2023-05-01T05:46:53.143Z,1409.00
2023-05-01T05:47:53.133Z,1416.00
2023-05-01T05:48:53.139Z,1414.00
2023-05-01T05:49:53.176Z,1420.00
2023-05-01T05:50:53.203Z,1427.00
2023-05-01T05:51:53.164Z,1423.00
2023-05-01T05:52:53.195Z,1446.00
2023-05-01T05:53:53.199Z,1452.00
2023-05-01T05:54:53.187Z,1453.00
2023-05-01T05:55:53.245Z,1450.00
2023-05-01T05:56:53.249Z,1438.00
2023-05-01T05:57:53.217Z,1424.00
2023-05-01T05:58:53.262Z,1428.00
2023-05-01T05:59:53.254Z,1405.00
2023-05-01T06:00:53.259Z,1406.00
2023-05-01T06:01:53.236Z,1411.00
2023-05-01T06:02:53.290Z,1411.00
2023-05-01T06:03:53.296Z,1421.00
2023-05-01T06:04:53.319Z,1427.00
2023-05-01T06:05:53.345Z,1414.00
2023-05-01T06:06:53.352Z,1433.00
2023-05-01T06:07:53.285Z,1417.00
2023-05-01T06:08:53.293Z,1402.00
2023-05-01T06:09:53.329Z,1406.00
2023-05-01T06:10:53.349Z,1437.00
2023-05-01T06:11:53.350Z,1431.00
2023-05-01T06:12:57.670Z,1444.00
2023-05-01T06:13:54.349Z,1445.00
2023-05-01T06:14:53.317Z,1433.00
2023-05-01T06:15:53.346Z,1434.00
2023-05-01T06:16:53.341Z,1451.00
2023-05-01T06:17:53.441Z,1432.00
2023-05-01T06:18:53.361Z,1449.00
2023-05-01T06:19:53.417Z,1439.00
2023-05-01T06:20:53.353Z,1449.00
2023-05-01T06:21:53.376Z,1433.00
2023-05-01T06:22:53.397Z,1427.00
2023-05-01T06:23:53.404Z,1426.00
2023-05-01T06:24:53.385Z,1428.00
2023-05-01T06:25:53.406Z,1416.00
2023-05-01T06:26:53.412Z,1421.00
2023-05-01T06:27:53.413Z,1422.00
2023-05-01T06:28:53.400Z,1456.00
2023-05-01T06:29:53.582Z,1424.00
2023-05-01T06:30:53.445Z,1440.00
2023-05-01T06:31:53.503Z,1447.00
2023-05-01T06:32:53.501Z,1461.00
2023-05-01T06:33:53.484Z,1453.00
2023-05-01T06:34:53.517Z,1441.00
2023-05-01T06:35:53.510Z,1443.00
2023-05-01T06:36:53.557Z,1447.00
2023-05-01T06:37:53.571Z,1442.00
2023-05-01T06:38:53.594Z,1422.00
2023-05-01T06:39:53.796Z,1417.00
2023-05-01T06:40:53.682Z,1379.00
2023-05-01T06:41:53.770Z,1368.00
2023-05-01T06:42:53.730Z,1375.00
2023-05-01T06:43:53.778Z,1351.00
2023-05-01T06:44:53.832Z,1359.00
2023-05-01T06:45:53.864Z,1389.00
2023-05-01T06:46:53.917Z,1385.00
2023-05-01T06:47:53.998Z,1367.00
2023-05-01T06:48:53.971Z,1366.00
2023-05-01T06:49:54.143Z,1386.00
2023-05-01T06:50:54.063Z,1349.00
2023-05-01T06:51:54.117Z,1325.00
2023-05-01T06:52:54.143Z,1322.00
2023-05-01T06:53:54.145Z,1343.00
2023-05-01T06:54:54.173Z,1321.00
2023-05-01T06:55:54.199Z,1320.00
2023-05-01T06:56:54.269Z,1326.00
2023-05-01T06:57:54.287Z,1347.00
2023-05-01T06:58:54.307Z,1296.00
2023-05-01T06:59:54.476Z,1274.00
2023-05-01T07:00:54.433Z,1259.00
2023-05-01T07:01:54.460Z,1270.00
2023-05-01T07:02:54.486Z,1249.00
2023-05-01T07:03:54.491Z,1250.00
2023-05-01T07:04:54.528Z,1262.00
2023-05-01T07:05:54.577Z,1247.00
2023-05-01T07:06:54.733Z,1259.00
2023-05-01T07:08:01.195Z,1216.00
2023-05-01T07:08:55.644Z,1217.00
2023-05-01T07:09:55.080Z,1177.00
2023-05-01T07:10:54.731Z,1191.00
2023-05-01T07:11:54.645Z,1178.00
2023-05-01T07:12:54.651Z,1170.00
2023-05-01T07:13:54.698Z,1187.00
2023-05-01T07:14:54.705Z,1129.00
2023-05-01T07:15:54.780Z,1138.00
2023-05-01T07:16:54.806Z,1129.00
2023-05-01T07:17:54.790Z,1128.00
2023-05-01T07:18:54.729Z,1126.00
2023-05-01T07:19:55.014Z,1121.00
2023-05-01T07:20:54.767Z,1117.00
2023-05-01T07:21:54.799Z,1112.00
2023-05-01T07:22:54.824Z,1103.00
2023-05-01T07:23:54.840Z,1107.00
2023-05-01T07:24:54.850Z,1073.00
2023-05-01T07:25:54.883Z,1081.00
2023-05-01T07:26:54.890Z,1080.00
2023-05-01T07:27:54.917Z,1093.00
2023-05-01T07:28:54.912Z,1132.00
2023-05-01T07:29:55.042Z,1170.00
2023-05-01T07:30:54.940Z,1168.00
2023-05-01T07:31:55.085Z,1138.00
2023-05-01T07:32:55.032Z,1121.00
2023-05-01T07:33:55.080Z,1123.00
2023-05-01T07:34:55.103Z,1112.00
2023-05-01T07:35:55.141Z,1110.00
2023-05-01T07:36:55.160Z,1058.00
2023-05-01T07:37:55.239Z,1028.00
2023-05-01T07:38:55.256Z,1039.00
2023-05-01T07:39:55.433Z,1021.00
2023-05-01T07:40:55.337Z,1008.00
2023-05-01T07:41:55.353Z,1026.00
2023-05-01T07:42:55.388Z,1023.00
2023-05-01T07:43:56.007Z,1044.00
2023-05-01T07:44:55.429Z,1021.00
2023-05-01T07:45:55.501Z,1036.00
2023-05-01T07:46:55.532Z,1061.00
2023-05-01T07:47:55.629Z,1024.00
2023-05-01T07:48:55.566Z,1038.00
2023-05-01T07:49:55.910Z,1049.00
2023-05-01T07:50:55.669Z,1052.00
2023-05-01T07:51:55.669Z,1067.00
2023-05-01T07:52:55.713Z,1071.00
2023-05-01T07:53:55.759Z,1102.00
2023-05-01T07:54:55.784Z,1121.00
2023-05-01T07:55:55.834Z,1101.00
2023-05-01T07:56:55.857Z,1062.00
2023-05-01T07:57:55.937Z,1076.00
2023-05-01T07:58:55.924Z,1071.00
2023-05-01T07:59:56.094Z,1087.00
2023-05-01T08:00:55.987Z,1065.00
2023-05-01T08:01:56.021Z,1093.00
2023-05-01T08:02:56.146Z,1082.00
2023-05-01T08:03:56.127Z,1112.00
2023-05-01T08:04:56.128Z,1123.00
2023-05-01T08:05:56.238Z,1125.00
2023-05-01T08:06:56.306Z,1132.00
2023-05-01T08:07:56.216Z,1122.00
2023-05-01T08:08:56.256Z,1124.00
2023-05-01T08:09:58.547Z,1096.00
2023-05-01T08:10:56.369Z,1104.00
2023-05-01T08:11:56.356Z,1097.00
2023-05-01T08:12:56.347Z,1097.00
2023-05-01T08:13:56.436Z,1105.00
2023-05-01T08:14:56.400Z,1139.00
2023-05-01T08:15:56.501Z,1149.00
2023-05-01T08:16:56.461Z,1154.00
2023-05-01T08:17:56.532Z,1150.00
2023-05-01T08:18:56.429Z,1110.00
2023-05-01T08:19:56.696Z,1082.00
2023-05-01T08:20:56.438Z,1095.00
2023-05-01T08:21:56.464Z,1126.00
2023-05-01T08:22:56.465Z,1108.00
2023-05-01T08:23:56.516Z,1127.00
2023-05-01T08:24:56.516Z,1135.00
2023-05-01T08:25:56.526Z,1190.00
2023-05-01T08:26:56.506Z,1162.00
2023-05-01T08:27:56.496Z,1195.00
2023-05-01T08:28:56.515Z,1172.00
2023-05-01T08:29:56.763Z,1171.00
2023-05-01T08:30:56.539Z,1158.00
2023-05-01T08:31:56.677Z,1157.00
2023-05-01T08:32:56.601Z,1096.00
2023-05-01T08:33:56.578Z,1074.00
2023-05-01T08:34:56.537Z,1019.00
2023-05-01T08:35:56.603Z,1003.00
2023-05-01T08:36:56.544Z,1011.00
2023-05-01T08:37:56.562Z,959.00
2023-05-01T08:38:56.563Z,964.00
2023-05-01T08:39:56.754Z,989.00
2023-05-01T08:40:56.615Z,1014.00
2023-05-01T08:41:56.580Z,1028.00
2023-05-01T08:42:56.580Z,1025.00
2023-05-01T08:43:56.566Z,1007.00
2023-05-01T08:44:56.606Z,973.00
2023-05-01T08:45:56.620Z,964.00
2023-05-01T08:46:56.666Z,971.00
2023-05-01T08:47:56.659Z,972.00
2023-05-01T08:48:56.620Z,985.00
2023-05-01T08:49:56.841Z,1009.00
2023-05-01T08:50:56.696Z,1052.00
2023-05-01T08:51:56.664Z,1045.00
2023-05-01T08:52:56.669Z,1027.00
2023-05-01T08:53:56.707Z,1038.00
2023-05-01T08:54:56.679Z,1014.00
2023-05-01T08:55:56.722Z,1007.00
2023-05-01T08:56:56.715Z,1050.00
2023-05-01T08:57:56.730Z,1063.00
2023-05-01T08:58:56.742Z,1032.00
2023-05-01T08:59:56.961Z,1015.00
2023-05-01T09:00:56.758Z,1016.00
2023-05-01T09:01:56.869Z,1016.00
2023-05-01T09:02:56.826Z,1022.00
2023-05-01T09:03:56.873Z,1025.00
2023-05-01T09:04:56.801Z,1036.00
2023-05-01T09:05:56.833Z,1020.00
2023-05-01T09:06:56.858Z,1001.00
2023-05-01T09:07:56.830Z,975.00
2023-05-01T09:08:56.859Z,972.00
2023-05-01T09:09:57.068Z,983.00
2023-05-01T09:10:56.865Z,971.00
2023-05-01T09:11:56.857Z,969.00
2023-05-01T09:12:56.875Z,973.00
2023-05-01T09:13:56.887Z,949.00
2023-05-01T09:14:56.873Z,955.00
2023-05-01T09:15:56.962Z,984.00
2023-05-01T09:16:57.018Z,998.00
2023-05-01T09:17:56.927Z,994.00
2023-05-01T09:18:56.916Z,980.00
2023-05-01T09:19:57.210Z,973.00
2023-05-01T09:20:57.102Z,999.00
2023-05-01T09:21:57.023Z,931.00
2023-05-01T09:22:57.052Z,896.00
2023-05-01T09:23:57.073Z,861.00
2023-05-01T09:24:57.078Z,886.00
2023-05-01T09:25:57.126Z,913.00
2023-05-01T09:26:57.167Z,914.00
2023-05-01T09:27:57.158Z,953.00
2023-05-01T09:28:57.216Z,960.00
2023-05-01T09:29:57.431Z,946.00
2023-05-01T09:30:58.052Z,942.00
2023-05-01T09:31:57.319Z,896.00
2023-05-01T09:32:57.359Z,865.00
2023-05-01T09:33:57.342Z,882.00
2023-05-01T09:34:57.398Z,902.00
2023-05-01T09:35:57.539Z,889.00
2023-05-01T09:36:57.508Z,908.00
2023-05-01T09:37:57.522Z,907.00
2023-05-01T09:38:57.566Z,921.00
2023-05-01T09:39:57.926Z,924.00
2023-05-01T09:40:57.646Z,921.00
2023-05-01T09:41:57.748Z,905.00
2023-05-01T09:42:57.735Z,913.00
2023-05-01T09:43:57.788Z,897.00
2023-05-01T09:44:57.804Z,908.00
2023-05-01T09:45:57.848Z,893.00
2023-05-01T09:46:57.921Z,907.00
2023-05-01T09:47:57.969Z,897.00
2023-05-01T09:48:58.011Z,883.00
2023-05-01T09:49:58.315Z,888.00
2023-05-01T09:50:58.114Z,897.00
2023-05-01T09:51:58.172Z,899.00
2023-05-01T09:52:58.165Z,891.00
2023-05-01T09:53:58.214Z,892.00
2023-05-01T09:54:58.292Z,917.00
2023-05-01T09:55:58.317Z,908.00
2023-05-01T09:56:58.391Z,892.00
2023-05-01T09:57:58.386Z,901.00
2023-05-01T09:58:58.429Z,883.00
2023-05-01T09:59:58.593Z,892.00
2023-05-01T10:00:58.566Z,901.00
2023-05-01T10:01:58.675Z,896.00
2023-05-01T10:02:58.734Z,838.00
2023-05-01T10:03:58.838Z,811.00
2023-05-01T10:04:58.937Z,831.00
2023-05-01T10:05:59.215Z,831.00
2023-05-01T10:06:59.188Z,826.00
2023-05-01T10:07:58.894Z,823.00
2023-05-01T10:08:58.928Z,839.00
2023-05-01T10:10:01.514Z,825.00
2023-05-01T10:10:58.967Z,843.00
2023-05-01T10:11:58.981Z,807.00
2023-05-01T10:12:58.956Z,809.00
2023-05-01T10:13:59.012Z,796.00
2023-05-01T10:15:01.779Z,810.00
2023-05-01T10:16:00.000Z,812.00
2023-05-01T10:16:59.079Z,815.00
2023-05-01T10:17:59.045Z,838.00
2023-05-01T10:18:59.101Z,859.00
2023-05-01T10:19:59.288Z,883.00
2023-05-01T10:20:58.997Z,883.00
2023-05-01T10:21:58.997Z,877.00
2023-05-01T10:22:59.003Z,854.00
2023-05-01T10:23:58.998Z,894.00
2023-05-01T10:24:59.011Z,881.00
2023-05-01T10:26:00.703Z,877.00
2023-05-01T10:26:59.029Z,889.00
2023-05-01T10:27:59.023Z,890.00
2023-05-01T10:28:59.095Z,877.00
2023-05-01T10:29:59.252Z,881.00
2023-05-01T10:30:59.088Z,885.00
2023-05-01T10:31:59.144Z,877.00
2023-05-01T10:32:59.154Z,899.00
2023-05-01T10:33:59.141Z,909.00
2023-05-01T10:34:59.251Z,909.00
2023-05-01T10:35:59.218Z,865.00
2023-05-01T10:36:59.567Z,864.00
2023-05-01T10:37:59.260Z,855.00
2023-05-01T10:38:59.299Z,841.00
2023-05-01T10:39:59.306Z,867.00
2023-05-01T10:40:59.387Z,882.00
2023-05-01T10:41:59.405Z,894.00
2023-05-01T10:42:59.438Z,879.00
2023-05-01T10:43:59.451Z,872.00
2023-05-01T10:44:59.452Z,852.00
2023-05-01T10:45:59.530Z,861.00
2023-05-01T10:46:59.595Z,872.00
2023-05-01T10:47:59.617Z,890.00
2023-05-01T10:49:00.573Z,867.00
2023-05-01T10:49:59.656Z,884.00
2023-05-01T10:50:59.702Z,885.00
2023-05-01T10:51:59.705Z,891.00
2023-05-01T10:52:59.767Z,880.00
2023-05-01T10:53:59.816Z,873.00
2023-05-01T10:54:59.820Z,864.00
2023-05-01T10:55:59.845Z,843.00
2023-05-01T10:56:59.962Z,846.00
2023-05-01T10:57:59.945Z,814.00
2023-05-01T10:59:00.007Z,835.00
2023-05-01T11:00:00.055Z,855.00
2023-05-01T11:01:00.055Z,845.00
2023-05-01T11:02:00.215Z,845.00
2023-05-01T11:03:00.184Z,849.00
2023-05-01T11:04:00.214Z,824.00
2023-05-01T11:05:00.509Z,831.00
2023-05-01T11:06:00.805Z,820.00
2023-05-01T11:07:00.413Z,823.00
2023-05-01T11:08:00.389Z,811.00
2023-05-01T11:09:00.444Z,800.00
2023-05-01T11:10:00.506Z,821.00
2023-05-01T11:11:00.533Z,816.00
2023-05-01T11:12:00.622Z,793.00
2023-05-01T11:13:00.657Z,807.00
2023-05-01T11:14:00.726Z,799.00
2023-05-01T11:15:00.782Z,779.00
2023-05-01T11:16:00.889Z,774.00
2023-05-01T11:17:00.886Z,814.00
2023-05-01T11:18:01.002Z,783.00
2023-05-01T11:19:00.995Z,731.00
2023-05-01T11:20:01.040Z,720.00
2023-05-01T11:21:01.049Z,712.00
2023-05-01T11:22:01.155Z,703.00
2023-05-01T11:23:01.215Z,678.00
2023-05-01T11:24:01.329Z,659.00
2023-05-01T11:25:01.335Z,659.00
2023-05-01T11:26:01.389Z,692.00
2023-05-01T11:27:01.447Z,706.00
2023-05-01T11:28:01.440Z,736.00
2023-05-01T11:29:01.506Z,735.00
2023-05-01T11:30:01.556Z,721.00
2023-05-01T11:31:01.661Z,735.00
2023-05-01T11:32:01.766Z,740.00
2023-05-01T11:33:01.805Z,727.00
2023-05-01T11:34:01.798Z,748.00
2023-05-01T11:35:01.846Z,739.00
2023-05-01T11:36:01.868Z,743.00
2023-05-01T11:37:01.921Z,717.00
2023-05-01T11:38:01.938Z,712.00
2023-05-01T11:39:02.034Z,666.00
2023-05-01T11:40:02.050Z,678.00
2023-05-01T11:41:02.132Z,656.00
2023-05-01T11:42:02.190Z,663.00
2023-05-01T11:43:02.272Z,680.00
2023-05-01T11:44:02.317Z,678.00
2023-05-01T11:45:02.380Z,677.00
2023-05-01T11:46:02.665Z,680.00
2023-05-01T11:47:02.531Z,672.00
2023-05-01T11:48:04.445Z,692.00
2023-05-01T11:49:02.733Z,666.00
2023-05-01T11:50:02.823Z,670.00
2023-05-01T11:51:02.837Z,687.00
2023-05-01T11:52:02.868Z,668.00
2023-05-01T11:53:02.902Z,659.00
2023-05-01T11:54:02.955Z,663.00
2023-05-01T11:55:03.275Z,659.00
2023-05-01T11:56:03.420Z,656.00
2023-05-01T11:57:03.095Z,643.00
2023-05-01T11:58:03.134Z,640.00
2023-05-01T11:59:03.184Z,648.00
2023-05-01T12:00:03.230Z,661.00
2023-05-01T12:01:03.278Z,689.00
2023-05-01T12:02:03.395Z,692.00
2023-05-01T12:03:03.571Z,688.00
2023-05-01T12:04:03.604Z,663.00
2023-05-01T12:05:03.560Z,656.00
2023-05-01T12:06:03.534Z,625.00
2023-05-01T12:07:03.624Z,605.00
2023-05-01T12:08:03.622Z,608.00
2023-05-01T12:09:03.641Z,611.00
2023-05-01T12:10:03.719Z,605.00
2023-05-01T12:11:03.738Z,612.00
2023-05-01T12:12:03.809Z,616.00